sensor_id;sensor_type;location;lat;lon;timestamp;temperature;humidity
18335;DHT22;9293;49.524;10.964;2022-12-29T00:00:12;6.60;99.90
18335;DHT22;9293;49.524;10.964;2022-12-29T00:02:41;6.60;99.90
18335;DHT22;9293;49.524;10.964;2022-12-29T00:05:09;6.60;99.90
18335;DHT22;9293;49.524;10.964;2022-12-29T00:07:37;6.60;99.90
18335;DHT22;9293;49.524;10.964;2022-12-29T00:10:06;6.60;99.90
18335;DHT22;9293;49.524;10.964;2022-12-29T00:12:36;6.60;99.90
18335;DHT22;9293;49.524;10.964;2022-12-29T00:15:23;6.70;99.90
18335;DHT22;9293;49.524;10.964;2022-12-29T00:18:07;6.70;99.90
18335;DHT22;9293;49.524;10.964;2022-12-29T00:20:36;6.80;99.90
18335;DHT22;9293;49.524;10.964;2022-12-29T00:23:23;6.80;99.90
18335;DHT22;9293;49.524;10.964;2022-12-29T00:26:15;6.80;99.90
18335;DHT22;9293;49.524;10.964;2022-12-29T00:29:03;6.90;99.90
18335;DHT22;9293;49.524;10.964;2022-12-29T00:31:49;6.90;99.90
18335;DHT22;9293;49.524;10.964;2022-12-29T00:34:36;7.00;99.90
18335;DHT22;9293;49.524;10.964;2022-12-29T00:37:46;6.90;99.90
18335;DHT22;9293;49.524;10.964;2022-12-29T00:40:33;6.90;99.90
18335;DHT22;9293;49.524;10.964;2022-12-29T00:43:22;7.00;99.90
18335;DHT22;9293;49.524;10.964;2022-12-29T00:46:09;7.00;99.90
18335;DHT22;9293;49.524;10.964;2022-12-29T00:48:45;7.00;99.90
18335;DHT22;9293;49.524;10.964;2022-12-29T00:51:32;7.00;99.90
18335;DHT22;9293;49.524;10.964;2022-12-29T00:54:00;7.00;99.90
18335;DHT22;9293;49.524;10.964;2022-12-29T00:56:28;7.00;99.90
18335;DHT22;9293;49.524;10.964;2022-12-29T00:59:03;7.00;99.90
18335;DHT22;9293;49.524;10.964;2022-12-29T01:01:33;7.00;99.90
18335;DHT22;9293;49.524;10.964;2022-12-29T01:04:02;7.00;99.90
18335;DHT22;9293;49.524;10.964;2022-12-29T01:06:31;7.00;99.90
18335;DHT22;9293;49.524;10.964;2022-12-29T01:09:08;7.00;99.90
18335;DHT22;9293;49.524;10.964;2022-12-29T01:12:12;7.00;99.90
18335;DHT22;9293;49.524;10.964;2022-12-29T01:14:40;7.00;99.90
18335;DHT22;9293;49.524;10.964;2022-12-29T01:17:09;7.00;99.90
18335;DHT22;9293;49.524;10.964;2022-12-29T01:19:37;7.00;99.90
18335;DHT22;9293;49.524;10.964;2022-12-29T01:22:05;7.10;99.90
18335;DHT22;9293;49.524;10.964;2022-12-29T01:24:34;7.00;99.90
18335;DHT22;9293;49.524;10.964;2022-12-29T01:27:02;7.10;99.90
18335;DHT22;9293;49.524;10.964;2022-12-29T01:29:29;7.10;99.90
18335;DHT22;9293;49.524;10.964;2022-12-29T01:31:57;7.20;99.90
18335;DHT22;9293;49.524;10.964;2022-12-29T01:34:26;7.20;99.90
18335;DHT22;9293;49.524;10.964;2022-12-29T01:36:54;7.20;99.90
18335;DHT22;9293;49.524;10.964;2022-12-29T01:39:22;7.20;99.90
18335;DHT22;9293;49.524;10.964;2022-12-29T01:41:50;7.20;99.90
18335;DHT22;9293;49.524;10.964;2022-12-29T01:47:26;7.20;99.90
18335;DHT22;9293;49.524;10.964;2022-12-29T01:49:58;7.10;99.90
18335;DHT22;9293;49.524;10.964;2022-12-29T01:52:31;7.10;99.90
18335;DHT22;9293;49.524;10.964;2022-12-29T01:55:02;7.20;99.90
18335;DHT22;9293;49.524;10.964;2022-12-29T01:57:34;7.20;99.90
18335;DHT22;9293;49.524;10.964;2022-12-29T02:00:07;7.20;99.90
18335;DHT22;9293;49.524;10.964;2022-12-29T02:02:42;7.20;99.90
18335;DHT22;9293;49.524;10.964;2022-12-29T02:05:37;7.30;99.90
18335;DHT22;9293;49.524;10.964;2022-12-29T02:08:12;7.30;99.90
18335;DHT22;9293;49.524;10.964;2022-12-29T02:10:42;7.30;99.90
18335;DHT22;9293;49.524;10.964;2022-12-29T02:13:10;7.30;99.90
18335;DHT22;9293;49.524;10.964;2022-12-29T02:33:24;7.00;99.90
18335;DHT22;9293;49.524;10.964;2022-12-29T02:36:14;6.80;99.90
18335;DHT22;9293;49.524;10.964;2022-12-29T02:39:01;6.70;99.90
18335;DHT22;9293;49.524;10.964;2022-12-29T02:46:54;6.50;99.90
18335;DHT22;9293;49.524;10.964;2022-12-29T02:52:18;6.40;99.90
18335;DHT22;9293;49.524;10.964;2022-12-29T02:54:49;6.40;99.90
18335;DHT22;9293;49.524;10.964;2022-12-29T02:59:53;6.30;99.90
18335;DHT22;9293;49.524;10.964;2022-12-29T03:02:41;6.30;99.90
18335;DHT22;9293;49.524;10.964;2022-12-29T03:05:27;6.30;99.90
18335;DHT22;9293;49.524;10.964;2022-12-29T03:08:21;6.30;99.90
18335;DHT22;9293;49.524;10.964;2022-12-29T03:13:29;6.20;99.90
18335;DHT22;9293;49.524;10.964;2022-12-29T03:16:44;6.20;99.90
18335;DHT22;9293;49.524;10.964;2022-12-29T03:19:21;6.20;99.90
18335;DHT22;9293;49.524;10.964;2022-12-29T03:21:57;6.10;99.90
18335;DHT22;9293;49.524;10.964;2022-12-29T03:28:05;6.10;99.90
18335;DHT22;9293;49.524;10.964;2022-12-29T03:30:41;6.10;99.90
18335;DHT22;9293;49.524;10.964;2022-12-29T03:33:16;6.00;99.90
18335;DHT22;9293;49.524;10.964;2022-12-29T03:35:48;6.10;99.90
18335;DHT22;9293;49.524;10.964;2022-12-29T03:38:24;6.10;99.90
18335;DHT22;9293;49.524;10.964;2022-12-29T03:40:58;6.20;99.90
18335;DHT22;9293;49.524;10.964;2022-12-29T03:43:29;6.20;99.90
18335;DHT22;9293;49.524;10.964;2022-12-29T03:45:58;6.30;99.90
18335;DHT22;9293;49.524;10.964;2022-12-29T03:48:26;6.50;99.90
18335;DHT22;9293;49.524;10.964;2022-12-29T03:50:55;6.70;99.90
18335;DHT22;9293;49.524;10.964;2022-12-29T03:53:23;6.90;99.90
18335;DHT22;9293;49.524;10.964;2022-12-29T03:55:52;6.90;99.90
18335;DHT22;9293;49.524;10.964;2022-12-29T03:58:22;7.00;99.90
18335;DHT22;9293;49.524;10.964;2022-12-29T04:00:59;7.20;99.90
18335;DHT22;9293;49.524;10.964;2022-12-29T04:03:30;7.30;99.90
18335;DHT22;9293;49.524;10.964;2022-12-29T04:05:58;7.40;99.90
18335;DHT22;9293;49.524;10.964;2022-12-29T04:08:31;7.50;99.90
18335;DHT22;9293;49.524;10.964;2022-12-29T04:10:59;7.70;99.90
18335;DHT22;9293;49.524;10.964;2022-12-29T04:13:27;7.80;99.90
18335;DHT22;9293;49.524;10.964;2022-12-29T04:15:55;7.80;99.90
18335;DHT22;9293;49.524;10.964;2022-12-29T04:18:23;7.80;99.90
18335;DHT22;9293;49.524;10.964;2022-12-29T04:20:52;7.80;99.90
18335;DHT22;9293;49.524;10.964;2022-12-29T04:23:33;7.80;99.90
18335;DHT22;9293;49.524;10.964;2022-12-29T04:26:03;7.80;99.90
18335;DHT22;9293;49.524;10.964;2022-12-29T04:28:33;7.80;99.90
18335;DHT22;9293;49.524;10.964;2022-12-29T04:31:12;7.80;99.90
18335;DHT22;9293;49.524;10.964;2022-12-29T04:33:42;7.80;99.90
18335;DHT22;9293;49.524;10.964;2022-12-29T04:36:11;7.80;99.90
18335;DHT22;9293;49.524;10.964;2022-12-29T04:38:39;7.70;99.90
18335;DHT22;9293;49.524;10.964;2022-12-29T04:41:08;7.60;99.90
18335;DHT22;9293;49.524;10.964;2022-12-29T04:43:38;7.50;99.90
18335;DHT22;9293;49.524;10.964;2022-12-29T04:46:20;7.40;99.90
18335;DHT22;9293;49.524;10.964;2022-12-29T04:48:58;7.40;99.90
18335;DHT22;9293;49.524;10.964;2022-12-29T04:51:37;7.30;99.90
18335;DHT22;9293;49.524;10.964;2022-12-29T04:54:08;7.30;99.90
18335;DHT22;9293;49.524;10.964;2022-12-29T04:56:36;7.40;99.90
18335;DHT22;9293;49.524;10.964;2022-12-29T04:59:04;7.50;99.90
18335;DHT22;9293;49.524;10.964;2022-12-29T05:01:33;7.60;99.90
18335;DHT22;9293;49.524;10.964;2022-12-29T05:04:01;7.70;99.90
18335;DHT22;9293;49.524;10.964;2022-12-29T05:06:30;7.60;99.90
18335;DHT22;9293;49.524;10.964;2022-12-29T05:08:58;7.60;99.90
18335;DHT22;9293;49.524;10.964;2022-12-29T05:11:26;7.50;99.90
18335;DHT22;9293;49.524;10.964;2022-12-29T05:13:55;7.40;99.90
18335;DHT22;9293;49.524;10.964;2022-12-29T05:16:26;7.40;99.90
18335;DHT22;9293;49.524;10.964;2022-12-29T05:18:55;7.30;99.90
18335;DHT22;9293;49.524;10.964;2022-12-29T05:21:24;7.40;99.90
18335;DHT22;9293;49.524;10.964;2022-12-29T05:23:57;7.50;99.90
18335;DHT22;9293;49.524;10.964;2022-12-29T05:26:26;7.50;99.90
18335;DHT22;9293;49.524;10.964;2022-12-29T05:29:23;7.60;99.90
18335;DHT22;9293;49.524;10.964;2022-12-29T05:31:52;7.50;99.90
18335;DHT22;9293;49.524;10.964;2022-12-29T05:34:20;7.50;99.90
18335;DHT22;9293;49.524;10.964;2022-12-29T05:36:49;7.50;99.90
18335;DHT22;9293;49.524;10.964;2022-12-29T05:39:17;7.40;99.90
18335;DHT22;9293;49.524;10.964;2022-12-29T05:41:51;7.40;99.90
18335;DHT22;9293;49.524;10.964;2022-12-29T05:44:42;7.30;99.90
18335;DHT22;9293;49.524;10.964;2022-12-29T05:47:23;7.20;99.90
18335;DHT22;9293;49.524;10.964;2022-12-29T05:50:14;7.10;99.90
18335;DHT22;9293;49.524;10.964;2022-12-29T05:53:13;7.00;99.90
18335;DHT22;9293;49.524;10.964;2022-12-29T05:55:46;7.00;99.90
18335;DHT22;9293;49.524;10.964;2022-12-29T05:58:17;6.80;99.90
18335;DHT22;9293;49.524;10.964;2022-12-29T06:00:46;6.70;99.90
18335;DHT22;9293;49.524;10.964;2022-12-29T06:03:14;6.50;99.90
18335;DHT22;9293;49.524;10.964;2022-12-29T06:05:45;6.30;99.90
18335;DHT22;9293;49.524;10.964;2022-12-29T06:08:15;6.20;99.90
18335;DHT22;9293;49.524;10.964;2022-12-29T06:10:43;6.20;99.90
18335;DHT22;9293;49.524;10.964;2022-12-29T06:13:12;6.30;99.90
18335;DHT22;9293;49.524;10.964;2022-12-29T06:15:43;6.30;99.90
18335;DHT22;9293;49.524;10.964;2022-12-29T06:18:11;6.30;99.90
18335;DHT22;9293;49.524;10.964;2022-12-29T06:20:46;6.30;99.90
18335;DHT22;9293;49.524;10.964;2022-12-29T06:23:16;6.30;99.90
18335;DHT22;9293;49.524;10.964;2022-12-29T06:25:49;6.30;99.90
18335;DHT22;9293;49.524;10.964;2022-12-29T06:28:17;6.30;99.90
18335;DHT22;9293;49.524;10.964;2022-12-29T06:30:45;6.30;99.90
18335;DHT22;9293;49.524;10.964;2022-12-29T06:33:14;6.20;99.90
18335;DHT22;9293;49.524;10.964;2022-12-29T06:35:43;6.20;99.90
18335;DHT22;9293;49.524;10.964;2022-12-29T06:38:11;6.20;99.90
18335;DHT22;9293;49.524;10.964;2022-12-29T06:40:39;6.20;99.90
18335;DHT22;9293;49.524;10.964;2022-12-29T06:43:29;6.20;99.90
18335;DHT22;9293;49.524;10.964;2022-12-29T06:46:03;6.20;99.90
18335;DHT22;9293;49.524;10.964;2022-12-29T06:48:32;6.10;99.90
18335;DHT22;9293;49.524;10.964;2022-12-29T06:51:00;6.10;99.90
18335;DHT22;9293;49.524;10.964;2022-12-29T06:53:28;6.00;99.90
18335;DHT22;9293;49.524;10.964;2022-12-29T06:55:56;5.90;99.90
18335;DHT22;9293;49.524;10.964;2022-12-29T06:58:24;5.90;99.90
18335;DHT22;9293;49.524;10.964;2022-12-29T07:00:52;5.90;99.90
18335;DHT22;9293;49.524;10.964;2022-12-29T07:03:20;6.00;99.90
18335;DHT22;9293;49.524;10.964;2022-12-29T07:05:48;6.00;99.90
18335;DHT22;9293;49.524;10.964;2022-12-29T07:08:16;6.00;99.90
18335;DHT22;9293;49.524;10.964;2022-12-29T07:10:45;6.00;99.90
18335;DHT22;9293;49.524;10.964;2022-12-29T07:13:13;6.00;99.90
18335;DHT22;9293;49.524;10.964;2022-12-29T07:15:41;5.90;99.90
18335;DHT22;9293;49.524;10.964;2022-12-29T07:18:09;6.00;99.90
18335;DHT22;9293;49.524;10.964;2022-12-29T07:20:37;6.00;99.90
18335;DHT22;9293;49.524;10.964;2022-12-29T07:23:05;6.00;99.90
18335;DHT22;9293;49.524;10.964;2022-12-29T07:25:33;5.90;99.90
18335;DHT22;9293;49.524;10.964;2022-12-29T07:28:03;5.90;99.90
18335;DHT22;9293;49.524;10.964;2022-12-29T07:30:31;6.00;99.90
18335;DHT22;9293;49.524;10.964;2022-12-29T07:33:00;6.20;99.90
18335;DHT22;9293;49.524;10.964;2022-12-29T07:35:30;6.40;99.90
18335;DHT22;9293;49.524;10.964;2022-12-29T07:37:58;6.50;99.90
18335;DHT22;9293;49.524;10.964;2022-12-29T07:40:26;6.60;99.90
18335;DHT22;9293;49.524;10.964;2022-12-29T07:42:54;6.70;99.90
18335;DHT22;9293;49.524;10.964;2022-12-29T07:45:31;6.80;99.90
18335;DHT22;9293;49.524;10.964;2022-12-29T07:48:07;6.80;99.90
18335;DHT22;9293;49.524;10.964;2022-12-29T07:50:36;6.90;99.90
18335;DHT22;9293;49.524;10.964;2022-12-29T07:53:04;7.10;99.90
18335;DHT22;9293;49.524;10.964;2022-12-29T07:55:32;7.40;99.90
18335;DHT22;9293;49.524;10.964;2022-12-29T07:58:00;7.60;99.90
18335;DHT22;9293;49.524;10.964;2022-12-29T08:00:28;7.80;99.90
18335;DHT22;9293;49.524;10.964;2022-12-29T08:02:58;8.00;99.90
18335;DHT22;9293;49.524;10.964;2022-12-29T08:05:30;8.10;99.90
18335;DHT22;9293;49.524;10.964;2022-12-29T08:08:02;8.10;99.90
18335;DHT22;9293;49.524;10.964;2022-12-29T08:10:33;8.10;99.90
18335;DHT22;9293;49.524;10.964;2022-12-29T08:13:01;8.10;99.90
18335;DHT22;9293;49.524;10.964;2022-12-29T08:15:29;8.10;99.90
18335;DHT22;9293;49.524;10.964;2022-12-29T08:17:58;8.10;99.90
18335;DHT22;9293;49.524;10.964;2022-12-29T08:20:27;8.10;99.90
18335;DHT22;9293;49.524;10.964;2022-12-29T08:22:55;8.10;99.90
18335;DHT22;9293;49.524;10.964;2022-12-29T08:25:23;8.20;99.90
18335;DHT22;9293;49.524;10.964;2022-12-29T08:27:51;8.30;99.90
18335;DHT22;9293;49.524;10.964;2022-12-29T08:30:19;8.40;99.90
18335;DHT22;9293;49.524;10.964;2022-12-29T08:32:47;8.50;99.90
18335;DHT22;9293;49.524;10.964;2022-12-29T08:35:15;8.60;99.90
18335;DHT22;9293;49.524;10.964;2022-12-29T08:37:43;8.70;99.90
18335;DHT22;9293;49.524;10.964;2022-12-29T08:40:11;8.70;99.90
18335;DHT22;9293;49.524;10.964;2022-12-29T08:42:43;8.80;99.90
18335;DHT22;9293;49.524;10.964;2022-12-29T08:45:11;9.00;99.90
18335;DHT22;9293;49.524;10.964;2022-12-29T08:47:38;9.10;99.90
18335;DHT22;9293;49.524;10.964;2022-12-29T08:50:07;9.10;99.90
18335;DHT22;9293;49.524;10.964;2022-12-29T08:52:35;9.10;99.90
18335;DHT22;9293;49.524;10.964;2022-12-29T08:55:04;9.10;99.90
18335;DHT22;9293;49.524;10.964;2022-12-29T08:57:32;9.10;99.90
18335;DHT22;9293;49.524;10.964;2022-12-29T09:00:10;9.10;99.90
18335;DHT22;9293;49.524;10.964;2022-12-29T09:02:38;9.10;99.90
18335;DHT22;9293;49.524;10.964;2022-12-29T09:05:07;9.10;99.90
18335;DHT22;9293;49.524;10.964;2022-12-29T09:07:35;9.10;99.90
18335;DHT22;9293;49.524;10.964;2022-12-29T09:10:04;9.30;99.90
18335;DHT22;9293;49.524;10.964;2022-12-29T09:12:32;9.30;99.90
18335;DHT22;9293;49.524;10.964;2022-12-29T09:15:03;9.40;99.90
18335;DHT22;9293;49.524;10.964;2022-12-29T09:17:31;9.50;99.90
18335;DHT22;9293;49.524;10.964;2022-12-29T09:20:21;9.70;99.90
18335;DHT22;9293;49.524;10.964;2022-12-29T09:22:49;9.80;99.90
18335;DHT22;9293;49.524;10.964;2022-12-29T09:25:17;9.90;99.90
18335;DHT22;9293;49.524;10.964;2022-12-29T09:27:45;10.00;99.90
18335;DHT22;9293;49.524;10.964;2022-12-29T09:30:17;10.10;99.90
18335;DHT22;9293;49.524;10.964;2022-12-29T09:32:46;10.10;99.90
18335;DHT22;9293;49.524;10.964;2022-12-29T09:35:20;10.20;99.90
18335;DHT22;9293;49.524;10.964;2022-12-29T09:37:52;10.20;99.90
18335;DHT22;9293;49.524;10.964;2022-12-29T09:40:33;10.30;99.90
18335;DHT22;9293;49.524;10.964;2022-12-29T09:45:39;10.40;99.90
18335;DHT22;9293;49.524;10.964;2022-12-29T09:48:15;10.40;99.90
18335;DHT22;9293;49.524;10.964;2022-12-29T09:50:50;10.80;99.90
18335;DHT22;9293;49.524;10.964;2022-12-29T09:53:38;11.00;99.90
18335;DHT22;9293;49.524;10.964;2022-12-29T09:56:17;10.90;99.90
18335;DHT22;9293;49.524;10.964;2022-12-29T10:01:38;10.70;99.90
18335;DHT22;9293;49.524;10.964;2022-12-29T10:04:12;10.70;99.90
18335;DHT22;9293;49.524;10.964;2022-12-29T10:12:46;10.80;99.90
18335;DHT22;9293;49.524;10.964;2022-12-29T10:23:52;10.80;99.90
18335;DHT22;9293;49.524;10.964;2022-12-29T10:26:39;10.90;99.90
18335;DHT22;9293;49.524;10.964;2022-12-29T10:29:20;10.90;99.90
18335;DHT22;9293;49.524;10.964;2022-12-29T10:32:02;11.10;99.90
18335;DHT22;9293;49.524;10.964;2022-12-29T10:34:38;11.30;99.90
18335;DHT22;9293;49.524;10.964;2022-12-29T10:40:45;11.20;99.90
18335;DHT22;9293;49.524;10.964;2022-12-29T10:43:30;11.20;99.90
18335;DHT22;9293;49.524;10.964;2022-12-29T10:46:10;11.40;99.90
18335;DHT22;9293;49.524;10.964;2022-12-29T10:48:40;11.50;99.90
18335;DHT22;9293;49.524;10.964;2022-12-29T10:51:32;11.50;99.90
18335;DHT22;9293;49.524;10.964;2022-12-29T10:56:39;11.60;99.90
18335;DHT22;9293;49.524;10.964;2022-12-29T11:02:40;11.60;99.90
18335;DHT22;9293;49.524;10.964;2022-12-29T11:07:34;11.70;99.90
18335;DHT22;9293;49.524;10.964;2022-12-29T11:13:12;11.70;99.90
18335;DHT22;9293;49.524;10.964;2022-12-29T11:15:45;11.70;99.90
18335;DHT22;9293;49.524;10.964;2022-12-29T11:18:35;11.80;99.90
18335;DHT22;9293;49.524;10.964;2022-12-29T11:21:09;11.80;99.90
18335;DHT22;9293;49.524;10.964;2022-12-29T11:24:17;11.80;99.90
18335;DHT22;9293;49.524;10.964;2022-12-29T11:26:53;11.80;99.90
18335;DHT22;9293;49.524;10.964;2022-12-29T11:29:27;11.80;99.90
18335;DHT22;9293;49.524;10.964;2022-12-29T11:31:57;12.00;99.90
18335;DHT22;9293;49.524;10.964;2022-12-29T11:34:35;11.90;99.90
18335;DHT22;9293;49.524;10.964;2022-12-29T11:37:12;11.90;99.90
18335;DHT22;9293;49.524;10.964;2022-12-29T11:40:00;11.90;99.90
18335;DHT22;9293;49.524;10.964;2022-12-29T11:42:36;12.00;99.90
18335;DHT22;9293;49.524;10.964;2022-12-29T11:45:13;11.90;99.90
18335;DHT22;9293;49.524;10.964;2022-12-29T11:47:45;11.80;99.90
18335;DHT22;9293;49.524;10.964;2022-12-29T11:50:20;11.80;99.90
18335;DHT22;9293;49.524;10.964;2022-12-29T11:52:51;11.80;99.90
18335;DHT22;9293;49.524;10.964;2022-12-29T11:55:25;11.80;99.90
18335;DHT22;9293;49.524;10.964;2022-12-29T11:57:55;11.70;99.90
18335;DHT22;9293;49.524;10.964;2022-12-29T12:00:27;11.70;99.90
18335;DHT22;9293;49.524;10.964;2022-12-29T12:03:21;11.70;99.90
18335;DHT22;9293;49.524;10.964;2022-12-29T12:05:56;11.70;99.90
18335;DHT22;9293;49.524;10.964;2022-12-29T12:08:31;11.70;99.90
18335;DHT22;9293;49.524;10.964;2022-12-29T12:11:10;11.70;99.90
18335;DHT22;9293;49.524;10.964;2022-12-29T12:14:02;11.60;99.90
18335;DHT22;9293;49.524;10.964;2022-12-29T12:17:09;11.60;99.90
18335;DHT22;9293;49.524;10.964;2022-12-29T12:22:40;11.50;99.90
18335;DHT22;9293;49.524;10.964;2022-12-29T12:25:54;11.50;99.90
18335;DHT22;9293;49.524;10.964;2022-12-29T12:28:36;11.50;99.90
18335;DHT22;9293;49.524;10.964;2022-12-29T12:31:47;11.50;99.90
18335;DHT22;9293;49.524;10.964;2022-12-29T12:34:17;11.40;99.90
18335;DHT22;9293;49.524;10.964;2022-12-29T12:36:56;11.30;99.90
18335;DHT22;9293;49.524;10.964;2022-12-29T12:40:24;11.20;99.90
18335;DHT22;9293;49.524;10.964;2022-12-29T12:51:23;10.90;99.90
18335;DHT22;9293;49.524;10.964;2022-12-29T12:54:36;10.90;99.90
18335;DHT22;9293;49.524;10.964;2022-12-29T13:00:09;10.90;99.90
18335;DHT22;9293;49.524;10.964;2022-12-29T13:08:14;10.90;99.90
18335;DHT22;9293;49.524;10.964;2022-12-29T13:10:53;10.90;99.90
18335;DHT22;9293;49.524;10.964;2022-12-29T13:30:53;11.00;99.90
18335;DHT22;9293;49.524;10.964;2022-12-29T13:33:28;11.00;99.90
18335;DHT22;9293;49.524;10.964;2022-12-29T13:39:12;11.00;99.90
18335;DHT22;9293;49.524;10.964;2022-12-29T13:41:40;11.10;99.90
18335;DHT22;9293;49.524;10.964;2022-12-29T13:44:25;11.00;99.90
18335;DHT22;9293;49.524;10.964;2022-12-29T13:47:29;11.00;99.90
18335;DHT22;9293;49.524;10.964;2022-12-29T13:49:57;11.00;99.90
18335;DHT22;9293;49.524;10.964;2022-12-29T13:52:37;11.00;99.90
18335;DHT22;9293;49.524;10.964;2022-12-29T13:58:04;11.00;99.90
18335;DHT22;9293;49.524;10.964;2022-12-29T14:00:46;11.30;99.90
18335;DHT22;9293;49.524;10.964;2022-12-29T14:06:23;11.30;99.90
18335;DHT22;9293;49.524;10.964;2022-12-29T14:09:00;11.20;99.90
18335;DHT22;9293;49.524;10.964;2022-12-29T14:11:38;11.10;99.90
18335;DHT22;9293;49.524;10.964;2022-12-29T14:14:25;11.00;99.90
18335;DHT22;9293;49.524;10.964;2022-12-29T14:17:09;11.00;99.90
18335;DHT22;9293;49.524;10.964;2022-12-29T14:19:43;11.00;99.90
18335;DHT22;9293;49.524;10.964;2022-12-29T14:22:12;11.00;99.90
18335;DHT22;9293;49.524;10.964;2022-12-29T14:24:43;11.00;99.90
18335;DHT22;9293;49.524;10.964;2022-12-29T14:34:55;10.80;99.90
18335;DHT22;9293;49.524;10.964;2022-12-29T14:37:27;10.80;99.90
18335;DHT22;9293;49.524;10.964;2022-12-29T14:40:05;10.70;99.90
18335;DHT22;9293;49.524;10.964;2022-12-29T14:42:34;10.60;99.90
18335;DHT22;9293;49.524;10.964;2022-12-29T14:47:54;10.40;99.90
18335;DHT22;9293;49.524;10.964;2022-12-29T14:50:41;10.40;99.90
18335;DHT22;9293;49.524;10.964;2022-12-29T14:53:48;10.50;99.90
18335;DHT22;9293;49.524;10.964;2022-12-29T14:56:18;10.50;99.90
18335;DHT22;9293;49.524;10.964;2022-12-29T14:58:54;10.40;99.90
18335;DHT22;9293;49.524;10.964;2022-12-29T15:01:29;10.40;99.90
18335;DHT22;9293;49.524;10.964;2022-12-29T15:04:18;10.40;99.90
18335;DHT22;9293;49.524;10.964;2022-12-29T15:06:48;10.40;99.90
18335;DHT22;9293;49.524;10.964;2022-12-29T15:09:31;10.40;99.90
18335;DHT22;9293;49.524;10.964;2022-12-29T15:14:55;10.40;99.90
18335;DHT22;9293;49.524;10.964;2022-12-29T15:17:31;10.40;99.90
18335;DHT22;9293;49.524;10.964;2022-12-29T15:20:32;10.40;99.90
18335;DHT22;9293;49.524;10.964;2022-12-29T15:23:09;10.50;99.90
18335;DHT22;9293;49.524;10.964;2022-12-29T15:25:52;10.50;99.90
18335;DHT22;9293;49.524;10.964;2022-12-29T15:28:21;10.50;99.90
18335;DHT22;9293;49.524;10.964;2022-12-29T15:31:14;10.50;99.90
18335;DHT22;9293;49.524;10.964;2022-12-29T15:33:45;10.50;99.90
18335;DHT22;9293;49.524;10.964;2022-12-29T15:37:19;10.50;99.90
18335;DHT22;9293;49.524;10.964;2022-12-29T15:39:48;10.50;99.90
18335;DHT22;9293;49.524;10.964;2022-12-29T15:45:08;10.50;99.90
18335;DHT22;9293;49.524;10.964;2022-12-29T15:47:39;10.50;99.90
18335;DHT22;9293;49.524;10.964;2022-12-29T15:50:27;10.50;99.90
18335;DHT22;9293;49.524;10.964;2022-12-29T15:52:56;10.50;99.90
18335;DHT22;9293;49.524;10.964;2022-12-29T15:55:33;10.50;99.90
18335;DHT22;9293;49.524;10.964;2022-12-29T15:58:05;10.60;99.90
18335;DHT22;9293;49.524;10.964;2022-12-29T16:00:49;10.90;99.90
18335;DHT22;9293;49.524;10.964;2022-12-29T16:03:23;11.10;99.90
18335;DHT22;9293;49.524;10.964;2022-12-29T16:05:55;11.20;99.90
18335;DHT22;9293;49.524;10.964;2022-12-29T16:08:34;11.00;99.90
18335;DHT22;9293;49.524;10.964;2022-12-29T16:13:45;10.70;99.90
18335;DHT22;9293;49.524;10.964;2022-12-29T16:16:20;10.60;99.90
18335;DHT22;9293;49.524;10.964;2022-12-29T16:18:53;10.60;99.90
18335;DHT22;9293;49.524;10.964;2022-12-29T16:21:29;10.60;99.90
18335;DHT22;9293;49.524;10.964;2022-12-29T16:24:20;10.50;99.90
18335;DHT22;9293;49.524;10.964;2022-12-29T16:27:02;10.50;99.90
18335;DHT22;9293;49.524;10.964;2022-12-29T16:29:31;10.50;99.90
18335;DHT22;9293;49.524;10.964;2022-12-29T16:32:00;10.50;99.90
18335;DHT22;9293;49.524;10.964;2022-12-29T16:37:30;10.40;99.90
18335;DHT22;9293;49.524;10.964;2022-12-29T16:40:33;10.30;99.90
18335;DHT22;9293;49.524;10.964;2022-12-29T16:43:02;10.30;99.90
18335;DHT22;9293;49.524;10.964;2022-12-29T16:48:20;10.30;99.90
18335;DHT22;9293;49.524;10.964;2022-12-29T16:50:49;10.30;99.90
18335;DHT22;9293;49.524;10.964;2022-12-29T16:53:38;10.30;99.90
18335;DHT22;9293;49.524;10.964;2022-12-29T16:56:15;10.30;99.90
18335;DHT22;9293;49.524;10.964;2022-12-29T16:58:50;10.20;99.90
18335;DHT22;9293;49.524;10.964;2022-12-29T17:01:21;10.20;99.90
18335;DHT22;9293;49.524;10.964;2022-12-29T17:03:57;10.20;99.90
18335;DHT22;9293;49.524;10.964;2022-12-29T17:06:26;10.10;99.90
18335;DHT22;9293;49.524;10.964;2022-12-29T17:09:22;10.10;99.90
18335;DHT22;9293;49.524;10.964;2022-12-29T17:11:53;10.10;99.90
18335;DHT22;9293;49.524;10.964;2022-12-29T17:17:32;10.00;99.90
18335;DHT22;9293;49.524;10.964;2022-12-29T17:20:04;10.00;99.90
18335;DHT22;9293;49.524;10.964;2022-12-29T17:22:32;10.00;99.90
18335;DHT22;9293;49.524;10.964;2022-12-29T17:25:01;9.90;99.90
18335;DHT22;9293;49.524;10.964;2022-12-29T17:27:55;9.80;99.90
18335;DHT22;9293;49.524;10.964;2022-12-29T17:30:27;9.80;99.90
18335;DHT22;9293;49.524;10.964;2022-12-29T17:33:11;9.80;99.90
18335;DHT22;9293;49.524;10.964;2022-12-29T17:35:40;9.80;99.90
18335;DHT22;9293;49.524;10.964;2022-12-29T17:38:19;9.80;99.90
18335;DHT22;9293;49.524;10.964;2022-12-29T17:40:48;9.80;99.90
18335;DHT22;9293;49.524;10.964;2022-12-29T17:43:17;9.70;99.90
18335;DHT22;9293;49.524;10.964;2022-12-29T17:45:50;9.70;99.90
18335;DHT22;9293;49.524;10.964;2022-12-29T17:48:19;9.70;99.90
18335;DHT22;9293;49.524;10.964;2022-12-29T17:50:50;9.60;99.90
18335;DHT22;9293;49.524;10.964;2022-12-29T17:53:23;9.60;99.90
18335;DHT22;9293;49.524;10.964;2022-12-29T17:55:51;9.60;99.90
18335;DHT22;9293;49.524;10.964;2022-12-29T17:58:31;9.50;99.90
18335;DHT22;9293;49.524;10.964;2022-12-29T18:01:00;9.50;99.90
18335;DHT22;9293;49.524;10.964;2022-12-29T18:03:34;9.40;99.90
18335;DHT22;9293;49.524;10.964;2022-12-29T18:06:04;9.30;99.90
18335;DHT22;9293;49.524;10.964;2022-12-29T18:08:35;9.30;99.90
18335;DHT22;9293;49.524;10.964;2022-12-29T18:11:08;9.20;99.90
18335;DHT22;9293;49.524;10.964;2022-12-29T18:13:43;9.20;99.90
18335;DHT22;9293;49.524;10.964;2022-12-29T18:16:13;9.10;99.90
18335;DHT22;9293;49.524;10.964;2022-12-29T18:18:45;9.10;99.90
18335;DHT22;9293;49.524;10.964;2022-12-29T18:21:23;9.10;99.90
18335;DHT22;9293;49.524;10.964;2022-12-29T18:23:52;9.00;99.90
18335;DHT22;9293;49.524;10.964;2022-12-29T18:26:22;9.00;99.90
18335;DHT22;9293;49.524;10.964;2022-12-29T18:28:58;9.00;99.90
18335;DHT22;9293;49.524;10.964;2022-12-29T18:31:28;8.90;99.90
18335;DHT22;9293;49.524;10.964;2022-12-29T18:34:01;8.90;99.90
18335;DHT22;9293;49.524;10.964;2022-12-29T18:36:31;8.80;99.90
18335;DHT22;9293;49.524;10.964;2022-12-29T18:38:59;8.70;99.90
18335;DHT22;9293;49.524;10.964;2022-12-29T18:41:28;8.60;99.90
18335;DHT22;9293;49.524;10.964;2022-12-29T18:43:57;8.60;99.90
18335;DHT22;9293;49.524;10.964;2022-12-29T18:46:26;8.60;99.90
18335;DHT22;9293;49.524;10.964;2022-12-29T18:48:54;8.70;99.90
18335;DHT22;9293;49.524;10.964;2022-12-29T18:51:23;8.60;99.90
18335;DHT22;9293;49.524;10.964;2022-12-29T18:53:52;8.60;99.90